sensor_id;sensor_type;location;lat;lon;timestamp;P1;durP1;ratioP1;P2;durP2;ratioP2
17890;SDS011;9071;48.220;14.480;2022-12-07T00:00:05;32.13;;;16.30;;
17890;SDS011;9071;48.220;14.480;2022-12-07T00:05:08;28.97;;;16.83;;
17890;SDS011;9071;48.220;14.480;2022-12-07T00:10:10;29.60;;;16.87;;
17890;SDS011;9071;48.220;14.480;2022-12-07T00:15:14;33.53;;;16.87;;
17890;SDS011;9071;48.220;14.480;2022-12-07T00:20:16;31.40;;;16.83;;
17890;SDS011;9071;48.220;14.480;2022-12-07T00:25:18;35.47;;;17.90;;
17890;SDS011;9071;48.220;14.480;2022-12-07T00:30:21;32.53;;;16.80;;
17890;SDS011;9071;48.220;14.480;2022-12-07T00:35:24;33.37;;;17.40;;
17890;SDS011;9071;48.220;14.480;2022-12-07T00:40:26;34.57;;;17.00;;
17890;SDS011;9071;48.220;14.480;2022-12-07T00:45:29;31.07;;;16.47;;
17890;SDS011;9071;48.220;14.480;2022-12-07T00:50:31;37.03;;;18.23;;
17890;SDS011;9071;48.220;14.480;2022-12-07T00:55:33;43.47;;;20.53;;
17890;SDS011;9071;48.220;14.480;2022-12-07T01:00:38;99.07;;;34.43;;
17890;SDS011;9071;48.220;14.480;2022-12-07T01:05:48;40.07;;;19.77;;
17890;SDS011;9071;48.220;14.480;2022-12-07T01:10:57;48.67;;;23.80;;
17890;SDS011;9071;48.220;14.480;2022-12-07T01:16:02;41.90;;;19.60;;
17890;SDS011;9071;48.220;14.480;2022-12-07T01:21:06;45.50;;;19.43;;
17890;SDS011;9071;48.220;14.480;2022-12-07T01:26:12;56.90;;;23.97;;
17890;SDS011;9071;48.220;14.480;2022-12-07T01:31:18;36.23;;;18.80;;
17890;SDS011;9071;48.220;14.480;2022-12-07T01:36:21;44.60;;;19.90;;
17890;SDS011;9071;48.220;14.480;2022-12-07T01:41:25;43.13;;;20.93;;
17890;SDS011;9071;48.220;14.480;2022-12-07T01:46:30;48.60;;;24.03;;
17890;SDS011;9071;48.220;14.480;2022-12-07T01:51:32;35.67;;;17.60;;
17890;SDS011;9071;48.220;14.480;2022-12-07T01:56:34;41.67;;;21.30;;
17890;SDS011;9071;48.220;14.480;2022-12-07T02:01:40;47.50;;;24.10;;
17890;SDS011;9071;48.220;14.480;2022-12-07T02:06:42;49.33;;;23.43;;
17890;SDS011;9071;48.220;14.480;2022-12-07T02:11:45;43.50;;;21.57;;
17890;SDS011;9071;48.220;14.480;2022-12-07T02:16:53;38.10;;;17.80;;
17890;SDS011;9071;48.220;14.480;2022-12-07T02:22:07;45.30;;;23.40;;
17890;SDS011;9071;48.220;14.480;2022-12-07T02:27:27;36.67;;;20.47;;
17890;SDS011;9071;48.220;14.480;2022-12-07T02:32:42;25.93;;;14.77;;
17890;SDS011;9071;48.220;14.480;2022-12-07T02:37:53;32.23;;;17.53;;
17890;SDS011;9071;48.220;14.480;2022-12-07T02:43:02;27.30;;;16.53;;
17890;SDS011;9071;48.220;14.480;2022-12-07T02:48:11;19.30;;;12.30;;
17890;SDS011;9071;48.220;14.480;2022-12-07T02:53:31;22.13;;;13.07;;
17890;SDS011;9071;48.220;14.480;2022-12-07T02:58:36;18.70;;;11.33;;
17890;SDS011;9071;48.220;14.480;2022-12-07T03:03:55;22.60;;;13.13;;
17890;SDS011;9071;48.220;14.480;2022-12-07T03:09:08;18.57;;;11.50;;
17890;SDS011;9071;48.220;14.480;2022-12-07T03:14:16;18.03;;;11.37;;
17890;SDS011;9071;48.220;14.480;2022-12-07T03:19:24;16.27;;;10.50;;
17890;SDS011;9071;48.220;14.480;2022-12-07T03:24:29;17.37;;;10.13;;
17890;SDS011;9071;48.220;14.480;2022-12-07T03:29:38;16.27;;;9.60;;
17890;SDS011;9071;48.220;14.480;2022-12-07T03:34:47;14.23;;;9.10;;
17890;SDS011;9071;48.220;14.480;2022-12-07T03:39:54;13.87;;;8.77;;
17890;SDS011;9071;48.220;14.480;2022-12-07T03:45:01;12.90;;;8.57;;
17890;SDS011;9071;48.220;14.480;2022-12-07T03:50:07;15.07;;;9.20;;
17890;SDS011;9071;48.220;14.480;2022-12-07T03:55:15;10.83;;;8.33;;
17890;SDS011;9071;48.220;14.480;2022-12-07T04:00:24;11.57;;;7.77;;
17890;SDS011;9071;48.220;14.480;2022-12-07T04:05:27;11.10;;;7.17;;
17890;SDS011;9071;48.220;14.480;2022-12-07T04:10:30;12.67;;;8.43;;
17890;SDS011;9071;48.220;14.480;2022-12-07T04:15:32;12.03;;;7.77;;
17890;SDS011;9071;48.220;14.480;2022-12-07T04:20:35;10.83;;;7.87;;
17890;SDS011;9071;48.220;14.480;2022-12-07T04:25:37;11.77;;;8.03;;
17890;SDS011;9071;48.220;14.480;2022-12-07T04:30:39;13.60;;;7.77;;
17890;SDS011;9071;48.220;14.480;2022-12-07T04:35:43;13.40;;;7.57;;
17890;SDS011;9071;48.220;14.480;2022-12-07T04:40:45;13.13;;;7.63;;
17890;SDS011;9071;48.220;14.480;2022-12-07T04:45:48;12.43;;;8.23;;
17890;SDS011;9071;48.220;14.480;2022-12-07T04:50:52;13.63;;;8.40;;
17890;SDS011;9071;48.220;14.480;2022-12-07T04:55:54;11.10;;;7.20;;
17890;SDS011;9071;48.220;14.480;2022-12-07T05:00:56;11.37;;;7.10;;
17890;SDS011;9071;48.220;14.480;2022-12-07T05:06:00;11.70;;;7.80;;
17890;SDS011;9071;48.220;14.480;2022-12-07T05:11:02;11.23;;;7.50;;
17890;SDS011;9071;48.220;14.480;2022-12-07T05:16:05;11.17;;;7.77;;
17890;SDS011;9071;48.220;14.480;2022-12-07T05:21:10;12.23;;;8.23;;
17890;SDS011;9071;48.220;14.480;2022-12-07T05:26:12;12.40;;;8.50;;
17890;SDS011;9071;48.220;14.480;2022-12-07T05:31:14;12.07;;;7.80;;
17890;SDS011;9071;48.220;14.480;2022-12-07T05:36:18;13.27;;;8.70;;
17890;SDS011;9071;48.220;14.480;2022-12-07T05:41:20;12.33;;;8.07;;
17890;SDS011;9071;48.220;14.480;2022-12-07T05:46:39;11.37;;;7.97;;
17890;SDS011;9071;48.220;14.480;2022-12-07T05:51:43;11.37;;;7.63;;
17890;SDS011;9071;48.220;14.480;2022-12-07T05:56:45;11.63;;;7.90;;
17890;SDS011;9071;48.220;14.480;2022-12-07T06:01:47;13.90;;;8.77;;
17890;SDS011;9071;48.220;14.480;2022-12-07T06:06:51;11.33;;;8.13;;
17890;SDS011;9071;48.220;14.480;2022-12-07T06:11:53;13.70;;;8.83;;
17890;SDS011;9071;48.220;14.480;2022-12-07T06:17:13;13.17;;;8.47;;
17890;SDS011;9071;48.220;14.480;2022-12-07T06:22:17;14.90;;;9.70;;
17890;SDS011;9071;48.220;14.480;2022-12-07T06:27:19;18.43;;;10.77;;
17890;SDS011;9071;48.220;14.480;2022-12-07T06:32:21;15.00;;;10.50;;
17890;SDS011;9071;48.220;14.480;2022-12-07T06:37:25;14.73;;;10.30;;
17890;SDS011;9071;48.220;14.480;2022-12-07T06:42:27;16.17;;;10.60;;
17890;SDS011;9071;48.220;14.480;2022-12-07T06:47:29;18.93;;;10.20;;
17890;SDS011;9071;48.220;14.480;2022-12-07T06:52:32;17.57;;;11.33;;
17890;SDS011;9071;48.220;14.480;2022-12-07T06:57:35;17.97;;;10.63;;
17890;SDS011;9071;48.220;14.480;2022-12-07T07:02:37;18.00;;;11.50;;
17890;SDS011;9071;48.220;14.480;2022-12-07T07:07:40;16.93;;;11.00;;
17890;SDS011;9071;48.220;14.480;2022-12-07T07:12:42;21.20;;;13.93;;
17890;SDS011;9071;48.220;14.480;2022-12-07T07:17:44;19.17;;;12.00;;
17890;SDS011;9071;48.220;14.480;2022-12-07T07:22:48;16.37;;;10.33;;
17890;SDS011;9071;48.220;14.480;2022-12-07T07:27:52;17.63;;;11.03;;
17890;SDS011;9071;48.220;14.480;2022-12-07T07:32:56;16.37;;;10.10;;
17890;SDS011;9071;48.220;14.480;2022-12-07T07:37:59;15.77;;;9.97;;
17890;SDS011;9071;48.220;14.480;2022-12-07T07:43:02;16.07;;;9.77;;
17890;SDS011;9071;48.220;14.480;2022-12-07T07:48:04;14.53;;;9.20;;
17890;SDS011;9071;48.220;14.480;2022-12-07T07:53:08;12.83;;;8.60;;
17890;SDS011;9071;48.220;14.480;2022-12-07T07:58:10;14.13;;;8.53;;
17890;SDS011;9071;48.220;14.480;2022-12-07T08:03:12;13.13;;;8.50;;
17890;SDS011;9071;48.220;14.480;2022-12-07T08:08:15;13.23;;;8.30;;
17890;SDS011;9071;48.220;14.480;2022-12-07T08:13:17;12.40;;;8.30;;
17890;SDS011;9071;48.220;14.480;2022-12-07T08:18:19;10.57;;;6.80;;
17890;SDS011;9071;48.220;14.480;2022-12-07T08:23:23;13.63;;;7.73;;
17890;SDS011;9071;48.220;14.480;2022-12-07T08:28:25;13.13;;;7.77;;
17890;SDS011;9071;48.220;14.480;2022-12-07T08:33:27;12.00;;;8.00;;
17890;SDS011;9071;48.220;14.480;2022-12-07T08:38:30;12.37;;;7.87;;
17890;SDS011;9071;48.220;14.480;2022-12-07T08:43:33;11.03;;;7.53;;
17890;SDS011;9071;48.220;14.480;2022-12-07T08:48:37;11.33;;;7.53;;
17890;SDS011;9071;48.220;14.480;2022-12-07T08:53:46;14.57;;;7.70;;
17890;SDS011;9071;48.220;14.480;2022-12-07T08:58:49;14.43;;;7.90;;
17890;SDS011;9071;48.220;14.480;2022-12-07T09:03:52;11.60;;;7.77;;
17890;SDS011;9071;48.220;14.480;2022-12-07T09:08:56;11.83;;;7.23;;
17890;SDS011;9071;48.220;14.480;2022-12-07T09:14:00;14.07;;;8.23;;
17890;SDS011;9071;48.220;14.480;2022-12-07T09:19:02;11.63;;;8.20;;
17890;SDS011;9071;48.220;14.480;2022-12-07T09:24:06;12.60;;;8.20;;
17890;SDS011;9071;48.220;14.480;2022-12-07T09:29:09;11.43;;;7.83;;
17890;SDS011;9071;48.220;14.480;2022-12-07T09:34:11;13.97;;;8.60;;
17890;SDS011;9071;48.220;14.480;2022-12-07T09:39:14;17.00;;;9.30;;
17890;SDS011;9071;48.220;14.480;2022-12-07T09:44:18;14.53;;;9.53;;
17890;SDS011;9071;48.220;14.480;2022-12-07T09:49:25;17.27;;;9.57;;
17890;SDS011;9071;48.220;14.480;2022-12-07T09:54:33;16.53;;;9.60;;
17890;SDS011;9071;48.220;14.480;2022-12-07T09:59:37;16.43;;;10.20;;
17890;SDS011;9071;48.220;14.480;2022-12-07T10:04:40;16.60;;;10.37;;
17890;SDS011;9071;48.220;14.480;2022-12-07T10:09:45;15.60;;;9.93;;
17890;SDS011;9071;48.220;14.480;2022-12-07T10:14:55;16.73;;;10.00;;
17890;SDS011;9071;48.220;14.480;2022-12-07T10:20:14;15.93;;;10.07;;
17890;SDS011;9071;48.220;14.480;2022-12-07T10:25:21;15.17;;;10.10;;
17890;SDS011;9071;48.220;14.480;2022-12-07T10:30:24;15.63;;;10.30;;
17890;SDS011;9071;48.220;14.480;2022-12-07T10:35:27;19.53;;;10.77;;
17890;SDS011;9071;48.220;14.480;2022-12-07T10:40:33;14.40;;;9.60;;
17890;SDS011;9071;48.220;14.480;2022-12-07T10:45:39;16.43;;;10.90;;
17890;SDS011;9071;48.220;14.480;2022-12-07T10:51:13;19.70;;;10.80;;
17890;SDS011;9071;48.220;14.480;2022-12-07T11:01:50;15.73;;;9.53;;
17890;SDS011;9071;48.220;14.480;2022-12-07T11:07:01;15.53;;;10.63;;
17890;SDS011;9071;48.220;14.480;2022-12-07T11:12:13;18.07;;;11.20;;
17890;SDS011;9071;48.220;14.480;2022-12-07T11:17:28;15.70;;;10.47;;
17890;SDS011;9071;48.220;14.480;2022-12-07T11:22:38;16.80;;;10.73;;
17890;SDS011;9071;48.220;14.480;2022-12-07T11:27:52;17.73;;;10.83;;
17890;SDS011;9071;48.220;14.480;2022-12-07T11:33:08;19.73;;;12.03;;
17890;SDS011;9071;48.220;14.480;2022-12-07T11:38:17;18.37;;;11.10;;
17890;SDS011;9071;48.220;14.480;2022-12-07T11:43:26;14.73;;;10.03;;
17890;SDS011;9071;48.220;14.480;2022-12-07T11:48:33;16.40;;;11.10;;
17890;SDS011;9071;48.220;14.480;2022-12-07T11:53:41;17.10;;;10.77;;
17890;SDS011;9071;48.220;14.480;2022-12-07T11:58:51;15.60;;;10.50;;
17890;SDS011;9071;48.220;14.480;2022-12-07T12:04:00;16.03;;;10.63;;
17890;SDS011;9071;48.220;14.480;2022-12-07T12:09:11;17.77;;;10.50;;
17890;SDS011;9071;48.220;14.480;2022-12-07T12:14:21;15.60;;;10.40;;
17890;SDS011;9071;48.220;14.480;2022-12-07T12:19:37;16.40;;;10.30;;
17890;SDS011;9071;48.220;14.480;2022-12-07T12:24:42;17.00;;;10.87;;
17890;SDS011;9071;48.220;14.480;2022-12-07T12:29:50;14.50;;;9.63;;
17890;SDS011;9071;48.220;14.480;2022-12-07T12:35:00;19.27;;;10.07;;
17890;SDS011;9071;48.220;14.480;2022-12-07T12:45:42;14.20;;;9.80;;
17890;SDS011;9071;48.220;14.480;2022-12-07T12:50:44;15.43;;;8.97;;
17890;SDS011;9071;48.220;14.480;2022-12-07T13:06:44;14.30;;;9.47;;
17890;SDS011;9071;48.220;14.480;2022-12-07T13:11:48;20.70;;;10.93;;
17890;SDS011;9071;48.220;14.480;2022-12-07T13:16:52;16.37;;;9.77;;
17890;SDS011;9071;48.220;14.480;2022-12-07T13:21:54;16.27;;;9.70;;
17890;SDS011;9071;48.220;14.480;2022-12-07T13:26:56;16.60;;;10.20;;
17890;SDS011;9071;48.220;14.480;2022-12-07T13:32:00;18.83;;;10.00;;
17890;SDS011;9071;48.220;14.480;2022-12-07T13:37:08;18.30;;;10.00;;
17890;SDS011;9071;48.220;14.480;2022-12-07T13:42:17;18.53;;;10.83;;
17890;SDS011;9071;48.220;14.480;2022-12-07T13:47:28;18.70;;;10.43;;
17890;SDS011;9071;48.220;14.480;2022-12-07T13:52:39;19.23;;;10.20;;
17890;SDS011;9071;48.220;14.480;2022-12-07T13:57:45;17.93;;;9.77;;
17890;SDS011;9071;48.220;14.480;2022-12-07T14:02:56;15.00;;;9.70;;
17890;SDS011;9071;48.220;14.480;2022-12-07T14:08:01;15.60;;;8.87;;
17890;SDS011;9071;48.220;14.480;2022-12-07T14:13:29;15.60;;;9.07;;
17890;SDS011;9071;48.220;14.480;2022-12-07T14:18:37;15.23;;;8.87;;
17890;SDS011;9071;48.220;14.480;2022-12-07T14:23:41;15.13;;;8.53;;
17890;SDS011;9071;48.220;14.480;2022-12-07T14:28:43;14.23;;;9.37;;
17890;SDS011;9071;48.220;14.480;2022-12-07T14:33:47;15.53;;;8.77;;
17890;SDS011;9071;48.220;14.480;2022-12-07T14:38:49;18.43;;;9.63;;
17890;SDS011;9071;48.220;14.480;2022-12-07T14:43:54;17.93;;;9.77;;
17890;SDS011;9071;48.220;14.480;2022-12-07T14:48:57;16.60;;;8.73;;
17890;SDS011;9071;48.220;14.480;2022-12-07T14:53:59;20.90;;;9.20;;
17890;SDS011;9071;48.220;14.480;2022-12-07T14:59:01;14.37;;;9.00;;
17890;SDS011;9071;48.220;14.480;2022-12-07T15:04:05;17.17;;;9.60;;
17890;SDS011;9071;48.220;14.480;2022-12-07T15:09:08;15.37;;;8.87;;
17890;SDS011;9071;48.220;14.480;2022-12-07T15:14:11;15.57;;;9.67;;
17890;SDS011;9071;48.220;14.480;2022-12-07T15:19:15;17.67;;;9.73;;
17890;SDS011;9071;48.220;14.480;2022-12-07T15:24:18;23.60;;;11.00;;
17890;SDS011;9071;48.220;14.480;2022-12-07T15:29:21;20.23;;;11.30;;
17890;SDS011;9071;48.220;14.480;2022-12-07T15:34:25;20.40;;;11.53;;
17890;SDS011;9071;48.220;14.480;2022-12-07T15:39:28;26.83;;;12.63;;
17890;SDS011;9071;48.220;14.480;2022-12-07T15:44:31;21.63;;;11.90;;
17890;SDS011;9071;48.220;14.480;2022-12-07T15:49:51;22.00;;;12.47;;
17890;SDS011;9071;48.220;14.480;2022-12-07T15:54:53;20.50;;;12.10;;
17890;SDS011;9071;48.220;14.480;2022-12-07T15:59:56;24.03;;;12.20;;
17890;SDS011;9071;48.220;14.480;2022-12-07T16:04:59;25.30;;;14.20;;
17890;SDS011;9071;48.220;14.480;2022-12-07T16:10:01;26.00;;;14.17;;
17890;SDS011;9071;48.220;14.480;2022-12-07T16:15:04;25.97;;;13.53;;
17890;SDS011;9071;48.220;14.480;2022-12-07T16:20:09;22.40;;;11.77;;
17890;SDS011;9071;48.220;14.480;2022-12-07T16:25:11;21.57;;;11.43;;
17890;SDS011;9071;48.220;14.480;2022-12-07T16:30:14;25.60;;;12.00;;
17890;SDS011;9071;48.220;14.480;2022-12-07T16:35:17;27.17;;;13.83;;
17890;SDS011;9071;48.220;14.480;2022-12-07T16:40:19;29.17;;;12.93;;
17890;SDS011;9071;48.220;14.480;2022-12-07T16:45:21;23.23;;;13.00;;
17890;SDS011;9071;48.220;14.480;2022-12-07T16:50:25;23.70;;;13.70;;
17890;SDS011;9071;48.220;14.480;2022-12-07T16:55:27;23.97;;;12.80;;
17890;SDS011;9071;48.220;14.480;2022-12-07T17:00:29;22.83;;;12.07;;
17890;SDS011;9071;48.220;14.480;2022-12-07T17:05:32;21.37;;;12.33;;
17890;SDS011;9071;48.220;14.480;2022-12-07T17:10:35;24.13;;;12.87;;
17890;SDS011;9071;48.220;14.480;2022-12-07T17:15:39;20.73;;;11.60;;
17890;SDS011;9071;48.220;14.480;2022-12-07T17:20:42;19.83;;;11.37;;
17890;SDS011;9071;48.220;14.480;2022-12-07T17:25:44;20.33;;;11.47;;
17890;SDS011;9071;48.220;14.480;2022-12-07T17:30:46;19.73;;;10.23;;
17890;SDS011;9071;48.220;14.480;2022-12-07T17:35:50;21.47;;;10.70;;
17890;SDS011;9071;48.220;14.480;2022-12-07T17:40:52;22.07;;;11.03;;
17890;SDS011;9071;48.220;14.480;2022-12-07T17:45:54;19.10;;;10.30;;
17890;SDS011;9071;48.220;14.480;2022-12-07T17:51:00;20.40;;;11.17;;
17890;SDS011;9071;48.220;14.480;2022-12-07T17:56:19;19.53;;;11.30;;
17890;SDS011;9071;48.220;14.480;2022-12-07T18:01:21;25.33;;;13.67;;
17890;SDS011;9071;48.220;14.480;2022-12-07T18:06:25;32.17;;;16.77;;
17890;SDS011;9071;48.220;14.480;2022-12-07T18:11:27;33.93;;;17.17;;
17890;SDS011;9071;48.220;14.480;2022-12-07T18:16:29;34.23;;;17.50;;
17890;SDS011;9071;48.220;14.480;2022-12-07T18:21:34;38.80;;;19.33;;
17890;SDS011;9071;48.220;14.480;2022-12-07T18:26:37;41.87;;;20.53;;
17890;SDS011;9071;48.220;14.480;2022-12-07T18:31:39;39.77;;;21.40;;
17890;SDS011;9071;48.220;14.480;2022-12-07T18:36:43;36.93;;;20.07;;
17890;SDS011;9071;48.220;14.480;2022-12-07T18:41:47;34.17;;;18.20;;
17890;SDS011;9071;48.220;14.480;2022-12-07T18:46:49;35.57;;;19.47;;
17890;SDS011;9071;48.220;14.480;2022-12-07T18:51:52;32.43;;;18.53;;
17890;SDS011;9071;48.220;14.480;2022-12-07T18:56:54;37.53;;;19.43;;
17890;SDS011;9071;48.220;14.480;2022-12-07T19:01:58;33.03;;;17.90;;
17890;SDS011;9071;48.220;14.480;2022-12-07T19:07:04;41.17;;;22.03;;
17890;SDS011;9071;48.220;14.480;2022-12-07T19:12:08;40.43;;;21.97;;
17890;SDS011;9071;48.220;14.480;2022-12-07T19:17:12;38.67;;;21.07;;
17890;SDS011;9071;48.220;14.480;2022-12-07T19:22:16;39.90;;;21.20;;
17890;SDS011;9071;48.220;14.480;2022-12-07T19:27:19;33.30;;;17.90;;
17890;SDS011;9071;48.220;14.480;2022-12-07T19:32:23;58.77;;;25.40;;
17890;SDS011;9071;48.220;14.480;2022-12-07T19:37:28;37.77;;;18.73;;
17890;SDS011;9071;48.220;14.480;2022-12-07T19:42:30;37.30;;;17.77;;
17890;SDS011;9071;48.220;14.480;2022-12-07T19:47:34;36.00;;;19.03;;
17890;SDS011;9071;48.220;14.480;2022-12-07T19:52:38;35.60;;;19.07;;
17890;SDS011;9071;48.220;14.480;2022-12-07T19:57:40;36.23;;;19.63;;
17890;SDS011;9071;48.220;14.480;2022-12-07T20:02:42;36.67;;;18.33;;
17890;SDS011;9071;48.220;14.480;2022-12-07T20:07:46;34.70;;;18.10;;
17890;SDS011;9071;48.220;14.480;2022-12-07T20:12:48;37.67;;;18.97;;
17890;SDS011;9071;48.220;14.480;2022-12-07T20:18:07;52.90;;;24.27;;
17890;SDS011;9071;48.220;14.480;2022-12-07T20:23:10;59.80;;;25.90;;
17890;SDS011;9071;48.220;14.480;2022-12-07T20:28:12;45.97;;;22.90;;
17890;SDS011;9071;48.220;14.480;2022-12-07T20:33:15;40.27;;;18.83;;
17890;SDS011;9071;48.220;14.480;2022-12-07T20:38:18;35.00;;;17.77;;
17890;SDS011;9071;48.220;14.480;2022-12-07T20:43:20;40.93;;;20.80;;
17890;SDS011;9071;48.220;14.480;2022-12-07T20:48:22;37.33;;;20.47;;
17890;SDS011;9071;48.220;14.480;2022-12-07T20:53:26;34.00;;;18.87;;
17890;SDS011;9071;48.220;14.480;2022-12-07T20:58:28;36.47;;;19.20;;
17890;SDS011;9071;48.220;14.480;2022-12-07T21:03:30;34.27;;;18.67;;
17890;SDS011;9071;48.220;14.480;2022-12-07T21:08:33;31.03;;;17.60;;
17890;SDS011;9071;48.220;14.480;2022-12-07T21:13:36;36.30;;;18.93;;
17890;SDS011;9071;48.220;14.480;2022-12-07T21:18:38;59.10;;;29.00;;
17890;SDS011;9071;48.220;14.480;2022-12-07T21:23:41;45.00;;;22.57;;
17890;SDS011;9071;48.220;14.480;2022-12-07T21:28:44;37.07;;;19.00;;
17890;SDS011;9071;48.220;14.480;2022-12-07T21:33:46;40.87;;;20.80;;
17890;SDS011;9071;48.220;14.480;2022-12-07T21:38:50;39.07;;;21.50;;
17890;SDS011;9071;48.220;14.480;2022-12-07T21:43:53;41.53;;;22.70;;
17890;SDS011;9071;48.220;14.480;2022-12-07T21:48:55;42.90;;;23.43;;
17890;SDS011;9071;48.220;14.480;2022-12-07T21:54:00;39.70;;;21.30;;
17890;SDS011;9071;48.220;14.480;2022-12-07T21:59:05;39.20;;;21.30;;
17890;SDS011;9071;48.220;14.480;2022-12-07T22:04:13;40.60;;;21.13;;
17890;SDS011;9071;48.220;14.480;2022-12-07T22:09:18;39.53;;;20.53;;
17890;SDS011;9071;48.220;14.480;2022-12-07T22:14:22;37.60;;;19.97;;
17890;SDS011;9071;48.220;14.480;2022-12-07T22:19:41;33.03;;;18.30;;
17890;SDS011;9071;48.220;14.480;2022-12-07T22:24:45;35.93;;;19.00;;
17890;SDS011;9071;48.220;14.480;2022-12-07T22:29:48;37.57;;;19.23;;
17890;SDS011;9071;48.220;14.480;2022-12-07T22:34:50;32.53;;;17.73;;
17890;SDS011;9071;48.220;14.480;2022-12-07T22:39:53;31.47;;;18.03;;
17890;SDS011;9071;48.220;14.480;2022-12-07T22:44:55;35.23;;;18.20;;
17890;SDS011;9071;48.220;14.480;2022-12-07T22:49:57;33.90;;;18.27;;
17890;SDS011;9071;48.220;14.480;2022-12-07T22:55:01;32.83;;;18.70;;
17890;SDS011;9071;48.220;14.480;2022-12-07T23:00:03;33.90;;;19.20;;
17890;SDS011;9071;48.220;14.480;2022-12-07T23:05:08;33.93;;;18.73;;
17890;SDS011;9071;48.220;14.480;2022-12-07T23:10:12;29.17;;;17.27;;
17890;SDS011;9071;48.220;14.480;2022-12-07T23:15:15;35.63;;;18.37;;
17890;SDS011;9071;48.220;14.480;2022-12-07T23:20:17;31.23;;;17.40;;
17890;SDS011;9071;48.220;14.480;2022-12-07T23:25:20;31.03;;;18.27;;
17890;SDS011;9071;48.220;14.480;2022-12-07T23:30:23;35.10;;;18.67;;
17890;SDS011;9071;48.220;14.480;2022-12-07T23:35:25;32.23;;;17.63;;
17890;SDS011;9071;48.220;14.480;2022-12-07T23:40:28;31.03;;;16.27;;
17890;SDS011;9071;48.220;14.480;2022-12-07T23:45:30;29.90;;;17.20;;
17890;SDS011;9071;48.220;14.480;2022-12-07T23:50:32;33.30;;;16.83;;
17890;SDS011;9071;48.220;14.480;2022-12-07T23:55:36;35.77;;;17.80;;
